Terminal Aerodrome Forecast
Issued by NWS

Home | Current Version | Previous Version | Text Only | Print | Product List | Glossary On
Versions: 1 2 3 4 5 6 7 8 9 10 11 12 13 14 15 16 17
000
FTUS42 KJAX 011140
TAFVQQ
TAF
KVQQ 011140Z 0112/0212 19003KT 6SM BR SCT050 BKN250
      TEMPO 0112/0113 5SM BR
     FM011400 20010KT P6SM SCT020 SCT050
     FM011600 20012G20KT P6SM SCT050 BKN250
     FM012300 20009KT P6SM SCT250
     FM020600 22007KT P6SM SCT025 BKN100
     FM021000 24006KT P6SM SCT008 BKN020=

USA.gov is the U.S. government's official web portal to all federal, state and local government web resources and services.